createdAt,value
2022-11-19T00:00:50.049Z,2.5
2022-11-19T00:02:50.577Z,2.5
2022-11-19T00:04:50.372Z,2.4
2022-11-19T00:06:50.385Z,2.4
2022-11-19T00:08:50.882Z,2.4
2022-11-19T00:10:50.482Z,2.4
2022-11-19T00:12:50.845Z,2.4
2022-11-19T00:14:50.315Z,2.3
2022-11-19T00:16:50.118Z,2.4
2022-11-19T00:18:50.479Z,2.4
2022-11-19T00:20:50.070Z,2.4
2022-11-19T00:22:50.427Z,2.4
2022-11-19T00:24:50.882Z,2.4
2022-11-19T00:26:50.598Z,2.4
2022-11-19T00:28:50.093Z,2.4
2022-11-19T00:30:50.702Z,2.4
2022-11-19T00:32:50.041Z,2.4
2022-11-19T00:34:50.882Z,2.4
2022-11-19T00:36:50.631Z,2.4
2022-11-19T00:38:50.108Z,2.3
2022-11-19T00:40:50.519Z,2.3
2022-11-19T00:42:50.145Z,2.3
2022-11-19T00:44:50.691Z,2.4
2022-11-19T00:46:50.499Z,2.4
2022-11-19T00:48:50.042Z,2.4
2022-11-19T00:50:50.465Z,2.4
2022-11-19T00:52:50.088Z,2.4
2022-11-19T00:54:50.499Z,2.5
2022-11-19T00:56:50.253Z,2.5
2022-11-19T00:58:50.771Z,2.5
2022-11-19T01:00:50.330Z,2.5
2022-11-19T01:02:49.986Z,2.6
2022-11-19T01:04:49.962Z,2.6
2022-11-19T01:06:50.796Z,2.6
2022-11-19T01:08:50.138Z,2.6
2022-11-19T01:10:50.460Z,2.6
2022-11-19T01:12:50.058Z,2.6
2022-11-19T01:14:50.420Z,2.6
2022-11-19T01:16:50.150Z,2.6
2022-11-19T01:18:50.796Z,2.6
2022-11-19T01:20:50.151Z,2.6
2022-11-19T01:22:50.792Z,2.6
2022-11-19T01:24:50.872Z,2.6
2022-11-19T01:26:50.591Z,2.6
2022-11-19T01:28:50.318Z,2.6
2022-11-19T01:30:50.858Z,2.5
2022-11-19T01:32:50.761Z,2.4
2022-11-19T01:34:50.785Z,2.4
2022-11-19T01:36:50.759Z,2.4
2022-11-19T01:38:50.305Z,2.4
2022-11-19T01:40:51.052Z,2.4
2022-11-19T01:42:50.638Z,2.4
2022-11-19T01:44:50.107Z,2.3
2022-11-19T01:46:50.024Z,2.3
2022-11-19T01:48:50.472Z,2.3
2022-11-19T01:50:50.898Z,2.3
2022-11-19T01:52:50.336Z,2.2
2022-11-19T01:54:50.671Z,2.2
2022-11-19T01:56:50.489Z,2.2
2022-11-19T01:58:50.852Z,2.2
2022-11-19T02:00:50.247Z,2.2
2022-11-19T02:02:50.699Z,2.2
2022-11-19T02:04:50.466Z,2.2
2022-11-19T02:06:50.298Z,2.2
2022-11-19T02:08:50.718Z,2.2
2022-11-19T02:10:50.092Z,2.2
2022-11-19T02:12:50.548Z,2.2
2022-11-19T02:14:55.604Z,2.2
2022-11-19T02:16:50.449Z,2.1
2022-11-19T02:18:50.856Z,2.1
2022-11-19T02:20:50.261Z,2.1
2022-11-19T02:22:50.759Z,2.0
2022-11-19T02:24:50.205Z,2.0
2022-11-19T02:26:49.972Z,2.0
2022-11-19T02:28:50.367Z,2.0
2022-11-19T02:30:50.746Z,2.0
2022-11-19T02:32:50.190Z,2.0
2022-11-19T02:34:50.031Z,2.0
2022-11-19T02:36:50.883Z,2.0
2022-11-19T02:38:50.251Z,2.1
2022-11-19T02:40:50.721Z,2.1
2022-11-19T02:42:50.116Z,2.1
2022-11-19T02:44:50.524Z,2.1
2022-11-19T02:46:50.427Z,2.1
2022-11-19T02:48:50.729Z,2.2
2022-11-19T02:50:50.057Z,2.2
2022-11-19T02:52:50.465Z,2.2
2022-11-19T02:54:50.857Z,2.2
2022-11-19T02:56:50.546Z,2.2
2022-11-19T02:58:49.963Z,2.2
2022-11-19T03:00:50.275Z,2.2
2022-11-19T03:02:50.863Z,2.2
2022-11-19T03:04:50.648Z,2.2
2022-11-19T03:06:50.298Z,2.2
2022-11-19T03:08:49.954Z,2.2
2022-11-19T03:10:50.336Z,2.2
2022-11-19T03:12:50.763Z,2.2
2022-11-19T03:14:50.149Z,2.2
2022-11-19T03:16:50.855Z,2.2
2022-11-19T03:18:50.196Z,2.2
2022-11-19T03:20:50.454Z,2.2
2022-11-19T03:22:50.224Z,2.2
2022-11-19T03:24:50.642Z,2.3
2022-11-19T03:26:50.365Z,2.3
2022-11-19T03:28:50.818Z,2.3
2022-11-19T03:30:50.134Z,2.3
2022-11-19T03:32:50.650Z,2.2
2022-11-19T03:34:50.391Z,2.2
2022-11-19T03:36:50.183Z,2.2
2022-11-19T03:38:50.566Z,2.2
2022-11-19T03:40:49.926Z,2.2
2022-11-19T03:42:50.450Z,2.2
2022-11-19T03:44:50.866Z,2.1
2022-11-19T03:46:50.566Z,2.1
2022-11-19T03:48:50.036Z,2.2
2022-11-19T03:50:50.402Z,2.1
2022-11-19T03:52:49.964Z,2.1
2022-11-19T03:54:50.434Z,2.2
2022-11-19T03:56:50.073Z,2.2
2022-11-19T03:58:50.709Z,2.2
2022-11-19T04:00:50.037Z,2.1
2022-11-19T04:02:50.430Z,2.2
2022-11-19T04:04:50.249Z,2.1
2022-11-19T04:06:50.665Z,2.1
2022-11-19T04:08:50.240Z,2.1
2022-11-19T04:10:50.555Z,2.2
2022-11-19T04:12:50.076Z,2.2
2022-11-19T04:14:50.422Z,2.2
2022-11-19T04:16:50.139Z,2.2
2022-11-19T04:18:50.672Z,2.2
2022-11-19T04:20:49.968Z,2.3
2022-11-19T04:22:50.321Z,2.3
2022-11-19T04:24:50.111Z,2.3
2022-11-19T04:26:50.857Z,2.3
2022-11-19T04:28:50.211Z,2.3
2022-11-19T04:30:50.753Z,2.3
2022-11-19T04:32:50.128Z,2.3
2022-11-19T04:34:49.975Z,2.3
2022-11-19T04:36:50.690Z,2.3
2022-11-19T04:38:50.033Z,2.2
2022-11-19T04:40:50.618Z,2.2
2022-11-19T04:42:50.073Z,2.2
2022-11-19T04:44:50.467Z,2.2
2022-11-19T04:46:50.217Z,2.2
2022-11-19T04:48:50.563Z,2.2
2022-11-19T04:50:50.125Z,2.2
2022-11-19T04:52:50.465Z,2.2
2022-11-19T04:54:50.769Z,2.2
2022-11-19T04:56:50.668Z,2.2
2022-11-19T04:58:49.984Z,2.2
2022-11-19T05:00:50.551Z,2.2
2022-11-19T05:02:50.921Z,2.2
2022-11-19T05:04:50.601Z,2.2
2022-11-19T05:06:50.384Z,2.2
2022-11-19T05:08:50.753Z,2.2
2022-11-19T05:10:50.264Z,2.2
2022-11-19T05:12:50.655Z,2.2
2022-11-19T05:14:50.044Z,2.2
2022-11-19T05:16:50.734Z,2.2
2022-11-19T05:18:50.103Z,2.2
2022-11-19T05:20:50.425Z,2.2
2022-11-19T05:22:50.855Z,2.2
2022-11-19T05:24:50.260Z,2.2
2022-11-19T05:26:50.038Z,2.1
2022-11-19T05:28:50.596Z,2.1
2022-11-19T05:30:49.989Z,2.1
2022-11-19T05:32:50.472Z,2.1
2022-11-19T05:34:50.371Z,2.1
2022-11-19T05:36:50.184Z,2.0
2022-11-19T05:38:50.699Z,2.0
2022-11-19T05:40:50.097Z,1.9
2022-11-19T05:42:50.699Z,2.0
2022-11-19T05:44:50.098Z,2.0
2022-11-19T05:46:50.893Z,1.9
2022-11-19T05:48:50.317Z,1.9
2022-11-19T05:50:50.709Z,2.0
2022-11-19T05:52:50.058Z,2.0
2022-11-19T05:54:50.684Z,1.9
2022-11-19T05:56:50.383Z,2.0
2022-11-19T05:58:50.788Z,1.9
2022-11-19T06:00:50.268Z,1.9
2022-11-19T06:02:50.784Z,2.0
2022-11-19T06:04:50.656Z,2.0
2022-11-19T06:06:50.212Z,2.0
2022-11-19T06:08:50.795Z,2.1
2022-11-19T06:10:50.078Z,2.1
2022-11-19T06:12:50.472Z,2.1
2022-11-19T06:14:50.029Z,2.1
2022-11-19T06:16:50.728Z,2.1
2022-11-19T06:18:50.258Z,2.1
2022-11-19T06:20:50.707Z,2.1
2022-11-19T06:22:50.057Z,2.1
2022-11-19T06:24:50.645Z,2.2
2022-11-19T06:26:50.440Z,2.2
2022-11-19T06:28:50.835Z,2.2
2022-11-19T06:30:50.326Z,2.2
2022-11-19T06:32:50.687Z,2.2
2022-11-19T06:34:50.409Z,2.2
2022-11-19T06:36:51.345Z,2.2
2022-11-19T06:38:50.734Z,2.2
2022-11-19T06:40:50.200Z,2.2
2022-11-19T06:42:51.628Z,2.2
2022-11-19T06:44:50.104Z,2.2
2022-11-19T06:46:49.969Z,2.2
2022-11-19T06:48:50.362Z,2.2
2022-11-19T06:50:50.808Z,2.2
2022-11-19T06:52:50.220Z,2.2
2022-11-19T06:54:50.580Z,2.2
2022-11-19T06:56:50.433Z,2.2
2022-11-19T06:58:50.799Z,2.2
2022-11-19T07:00:50.170Z,2.2
2022-11-19T07:02:50.772Z,2.2
2022-11-19T07:04:50.747Z,2.2
2022-11-19T07:06:50.534Z,2.2
2022-11-19T07:08:50.869Z,2.2
2022-11-19T07:10:50.237Z,2.2
2022-11-19T07:12:50.838Z,2.2
2022-11-19T07:14:50.251Z,2.2
2022-11-19T07:16:50.094Z,2.2
2022-11-19T07:18:50.426Z,2.2
2022-11-19T07:20:50.909Z,2.2
2022-11-19T07:22:59.726Z,2.2
2022-11-19T07:24:50.066Z,2.2
2022-11-19T07:26:50.848Z,2.2
2022-11-19T07:28:50.236Z,2.2
2022-11-19T07:30:50.731Z,2.2
2022-11-19T07:32:50.037Z,2.3
2022-11-19T07:34:49.938Z,2.4
2022-11-19T07:36:50.598Z,2.4
2022-11-19T07:38:50.898Z,2.3
2022-11-19T07:40:50.403Z,2.3
2022-11-19T07:42:50.837Z,2.3
2022-11-19T07:44:55.540Z,2.3
2022-11-19T07:46:50.241Z,2.2
2022-11-19T07:48:50.698Z,2.2
2022-11-19T07:50:56.949Z,2.2
2022-11-19T07:52:50.270Z,2.2
2022-11-19T07:54:50.890Z,2.2
2022-11-19T07:56:50.795Z,2.2
2022-11-19T07:58:50.157Z,2.2
2022-11-19T08:00:50.569Z,2.2
2022-11-19T08:02:50.884Z,2.2
2022-11-19T08:04:50.676Z,2.1
2022-11-19T08:06:50.431Z,2.1
2022-11-19T08:08:50.827Z,2.0
2022-11-19T08:10:50.312Z,2.0
2022-11-19T08:12:50.648Z,1.9
2022-11-19T08:14:50.215Z,1.9
2022-11-19T08:16:50.102Z,1.8
2022-11-19T08:18:50.439Z,1.8
2022-11-19T08:20:50.042Z,1.8
2022-11-19T08:22:50.391Z,1.8
2022-11-19T08:24:50.315Z,1.8
2022-11-19T08:26:50.112Z,1.8
2022-11-19T08:28:50.519Z,1.7
2022-11-19T08:30:50.040Z,1.6
2022-11-19T08:32:50.411Z,1.6
2022-11-19T08:34:50.309Z,1.6
2022-11-19T08:36:50.094Z,1.6
2022-11-19T08:38:50.466Z,1.6
2022-11-19T08:40:50.024Z,1.6
2022-11-19T08:42:50.344Z,1.6
2022-11-19T08:44:50.696Z,1.6
2022-11-19T08:46:50.573Z,1.6
2022-11-19T08:48:50.860Z,1.6
2022-11-19T08:50:50.372Z,1.6
2022-11-19T08:52:50.761Z,1.6
2022-11-19T08:54:50.124Z,1.6
2022-11-19T08:56:50.830Z,1.6
2022-11-19T08:58:50.148Z,1.6
2022-11-19T09:00:50.692Z,1.6
2022-11-19T09:02:50.261Z,1.6
2022-11-19T09:04:50.155Z,1.6
2022-11-19T09:06:50.786Z,1.6
2022-11-19T09:08:50.124Z,1.6
2022-11-19T09:10:50.402Z,1.6
2022-11-19T09:12:49.966Z,1.7
2022-11-19T09:14:50.276Z,1.7
2022-11-19T09:16:50.031Z,1.7
2022-11-19T09:18:50.540Z,1.7
2022-11-19T09:20:50.910Z,1.7
2022-11-19T09:22:50.484Z,1.7
2022-11-19T09:24:50.876Z,1.6
2022-11-19T09:26:59.580Z,1.6
2022-11-19T09:28:50.529Z,1.6
2022-11-19T09:30:50.892Z,1.6
2022-11-19T09:32:50.475Z,1.7
2022-11-19T09:34:50.496Z,1.7
2022-11-19T09:36:50.242Z,1.7
2022-11-19T09:38:50.605Z,1.7
2022-11-19T09:40:50.050Z,1.8
2022-11-19T09:42:50.622Z,1.8
2022-11-19T09:44:49.957Z,1.8
2022-11-19T09:46:50.565Z,1.8
2022-11-19T09:48:50.065Z,1.8
2022-11-19T09:50:54.062Z,1.8
2022-11-19T09:52:50.604Z,1.9
2022-11-19T09:54:49.955Z,1.9
2022-11-19T09:56:50.497Z,1.9
2022-11-19T09:58:49.932Z,1.9
2022-11-19T10:00:50.349Z,1.9
2022-11-19T10:02:51.133Z,1.8
2022-11-19T10:04:50.066Z,1.8
2022-11-19T10:06:50.746Z,1.8
2022-11-19T10:08:50.385Z,1.8
2022-11-19T10:10:50.714Z,1.8
2022-11-19T10:12:50.092Z,1.8
2022-11-19T10:14:50.574Z,1.9
2022-11-19T10:16:50.290Z,1.9
2022-11-19T10:18:51.004Z,1.9
2022-11-19T10:20:50.475Z,1.9
2022-11-19T10:22:58.141Z,1.9
2022-11-19T10:24:50.686Z,2.0
2022-11-19T10:26:50.271Z,2.0
2022-11-19T10:28:50.698Z,2.0
2022-11-19T10:30:50.233Z,2.0
2022-11-19T10:32:50.629Z,2.0
2022-11-19T10:34:50.572Z,2.1
2022-11-19T10:36:50.280Z,2.1
2022-11-19T10:38:51.774Z,2.1
2022-11-19T10:40:50.160Z,2.2
2022-11-19T10:42:50.619Z,2.2
2022-11-19T10:44:50.050Z,2.2
2022-11-19T10:46:50.622Z,2.2
2022-11-19T10:48:50.154Z,2.2
2022-11-19T10:50:50.548Z,2.3
2022-11-19T10:52:50.835Z,2.3
2022-11-19T10:54:50.413Z,2.3
2022-11-19T10:56:50.083Z,2.3
2022-11-19T10:58:50.547Z,2.2
2022-11-19T11:00:51.117Z,2.2
2022-11-19T11:02:50.632Z,2.2
2022-11-19T11:04:50.538Z,2.3
2022-11-19T11:06:50.219Z,2.4
2022-11-19T11:08:50.617Z,2.3
2022-11-19T11:10:50.014Z,2.4
2022-11-19T11:12:50.367Z,2.4
2022-11-19T11:14:50.768Z,2.4
2022-11-19T11:16:50.447Z,2.4
2022-11-19T11:18:50.745Z,2.4
2022-11-19T11:20:50.191Z,2.5
2022-11-19T11:22:50.510Z,2.5
2022-11-19T11:24:50.828Z,2.5
2022-11-19T11:26:50.537Z,2.4
2022-11-19T11:28:50.877Z,2.4
2022-11-19T11:30:50.209Z,2.4
2022-11-19T11:32:50.768Z,2.4
2022-11-19T11:34:50.508Z,2.4
2022-11-19T11:36:50.187Z,2.4
2022-11-19T11:38:50.503Z,2.4
2022-11-19T11:42:02.367Z,2.3
2022-11-19T11:42:50.693Z,2.3
2022-11-19T11:44:50.074Z,2.3
2022-11-19T11:46:50.834Z,2.3
2022-11-19T11:48:50.293Z,2.3
2022-11-19T11:50:50.652Z,2.3
2022-11-19T11:52:50.216Z,2.3
2022-11-19T11:54:50.525Z,2.2
2022-11-19T11:56:50.122Z,2.2
2022-11-19T11:58:50.643Z,2.2
2022-11-19T12:00:49.978Z,2.2
2022-11-19T12:02:50.282Z,2.2
2022-11-19T12:04:50.166Z,2.2
2022-11-19T12:06:50.734Z,2.2
2022-11-19T12:08:50.366Z,2.2
2022-11-19T12:10:50.734Z,2.2
2022-11-19T12:12:50.216Z,2.2
2022-11-19T12:14:50.709Z,2.1
2022-11-19T12:16:50.258Z,2.1
2022-11-19T12:18:50.670Z,2.0
2022-11-19T12:20:49.935Z,2.0
2022-11-19T12:22:50.274Z,2.0
2022-11-19T12:24:50.786Z,2.0
2022-11-19T12:26:50.339Z,2.0
2022-11-19T12:28:50.697Z,2.0
2022-11-19T12:30:50.312Z,2.1
2022-11-19T12:32:50.533Z,2.1
2022-11-19T12:34:50.360Z,2.1
2022-11-19T12:36:50.148Z,2.1
2022-11-19T12:38:50.581Z,2.1
2022-11-19T12:40:50.115Z,2.1
2022-11-19T12:42:50.457Z,2.1
2022-11-19T12:44:49.975Z,2.1
2022-11-19T12:46:50.663Z,2.1
2022-11-19T12:48:49.985Z,2.1
2022-11-19T12:50:50.535Z,2.1
2022-11-19T12:52:49.954Z,2.1
2022-11-19T12:54:50.367Z,2.0
2022-11-19T12:56:50.279Z,2.0
2022-11-19T12:58:50.636Z,2.1
2022-11-19T13:00:50.543Z,2.0
2022-11-19T13:02:49.941Z,2.0
2022-11-19T13:04:50.686Z,2.1
2022-11-19T13:06:50.378Z,2.1
2022-11-19T13:08:50.715Z,2.0
2022-11-19T13:10:50.117Z,2.0
2022-11-19T13:12:50.451Z,1.9
2022-11-19T13:14:55.697Z,1.9
2022-11-19T13:16:50.235Z,2.0
2022-11-19T13:18:50.617Z,1.9
2022-11-19T13:20:49.996Z,1.9
2022-11-19T13:22:50.291Z,1.9
2022-11-19T13:24:50.707Z,1.8
2022-11-19T13:26:50.374Z,1.8
2022-11-19T13:28:50.883Z,1.8
2022-11-19T13:30:50.470Z,1.8
2022-11-19T13:32:50.734Z,1.7
2022-11-19T13:34:50.578Z,1.7
2022-11-19T13:36:50.175Z,1.7
2022-11-19T13:38:50.563Z,1.6
2022-11-19T13:40:50.138Z,1.6
2022-11-19T13:43:32.336Z,1.6
2022-11-19T13:44:50.437Z,1.6
2022-11-19T13:46:50.249Z,1.5
2022-11-19T13:48:50.529Z,1.5
2022-11-19T13:50:50.572Z,1.4
2022-11-19T13:52:50.301Z,1.4
2022-11-19T13:54:50.833Z,1.4
2022-11-19T13:56:50.534Z,1.3
2022-11-19T13:58:50.071Z,1.3
2022-11-19T14:00:50.494Z,1.3
2022-11-19T14:02:50.832Z,1.3
2022-11-19T14:04:50.657Z,1.3
2022-11-19T14:06:50.285Z,1.3
2022-11-19T14:08:50.798Z,1.3
2022-11-19T14:10:50.176Z,1.3
2022-11-19T14:12:50.440Z,1.3
2022-11-19T14:14:50.849Z,1.4
2022-11-19T14:16:50.546Z,1.4
2022-11-19T14:18:55.250Z,1.4
2022-11-19T14:20:50.872Z,1.4
2022-11-19T14:22:50.176Z,1.5
2022-11-19T14:24:50.702Z,1.5
2022-11-19T14:26:52.930Z,1.5
2022-11-19T14:28:50.240Z,1.5
2022-11-19T14:30:50.906Z,1.5
2022-11-19T14:32:50.297Z,1.5
2022-11-19T14:34:50.190Z,1.5
2022-11-19T14:36:50.740Z,1.5
2022-11-19T14:38:50.346Z,1.5
2022-11-19T14:40:50.708Z,1.5
2022-11-19T14:42:50.192Z,1.5
2022-11-19T14:44:50.575Z,1.5
2022-11-19T14:46:50.137Z,1.5
2022-11-19T14:48:50.929Z,1.5
2022-11-19T14:50:50.473Z,1.5
2022-11-19T14:52:50.868Z,1.5
2022-11-19T14:54:50.474Z,1.6
2022-11-19T14:56:50.158Z,1.5
2022-11-19T14:58:50.607Z,1.5
2022-11-19T15:00:50.175Z,1.5
2022-11-19T15:02:50.537Z,1.5
2022-11-19T15:04:50.383Z,1.5
2022-11-19T15:06:50.216Z,1.5
2022-11-19T15:08:50.623Z,1.6
2022-11-19T15:10:50.102Z,1.6
2022-11-19T15:12:50.399Z,1.5
2022-11-19T15:14:50.881Z,1.5
2022-11-19T15:16:50.766Z,1.5
2022-11-19T15:18:50.110Z,1.5
2022-11-19T15:20:50.787Z,1.5
2022-11-19T15:22:50.098Z,1.4
2022-11-19T15:24:50.412Z,1.4
2022-11-19T15:26:50.116Z,1.4
2022-11-19T15:28:50.626Z,1.4
2022-11-19T15:30:50.450Z,1.4
2022-11-19T15:32:50.785Z,1.5
2022-11-19T15:35:12.150Z,1.5
2022-11-19T15:36:50.295Z,1.5
2022-11-19T15:38:50.613Z,1.5
2022-11-19T15:40:50.202Z,1.5
2022-11-19T15:42:50.603Z,1.5
2022-11-19T15:44:50.085Z,1.5
2022-11-19T15:46:50.882Z,1.5
2022-11-19T15:48:50.229Z,1.5
2022-11-19T15:50:50.714Z,1.4
2022-11-19T15:52:50.098Z,1.4
2022-11-19T15:54:50.518Z,1.4
2022-11-19T15:56:50.294Z,1.4
2022-11-19T15:58:50.754Z,1.3
2022-11-19T16:00:50.354Z,1.3
2022-11-19T16:02:50.720Z,1.2
2022-11-19T16:04:50.726Z,1.1
2022-11-19T16:06:50.819Z,1.1
2022-11-19T16:08:50.159Z,1.1
2022-11-19T16:10:50.642Z,1.0
2022-11-19T16:12:50.079Z,1.0
2022-11-19T16:14:50.492Z,1.0
2022-11-19T16:16:50.165Z,1.0
2022-11-19T16:18:50.543Z,1.0
2022-11-19T16:20:50.921Z,1.0
2022-11-19T16:22:50.534Z,1.1
2022-11-19T16:24:49.969Z,1.1
2022-11-19T16:26:50.572Z,1.1
2022-11-19T16:28:50.103Z,1.1
2022-11-19T16:30:50.509Z,1.1
2022-11-19T16:32:50.810Z,1.1
2022-11-19T16:34:50.519Z,1.1
2022-11-19T16:36:50.215Z,1.1
2022-11-19T16:38:50.705Z,1.1
2022-11-19T16:40:50.096Z,1.1
2022-11-19T16:42:50.613Z,1.1
2022-11-19T16:44:50.075Z,1.1
2022-11-19T16:46:50.801Z,1.1
2022-11-19T16:48:50.322Z,1.1
2022-11-19T16:50:50.751Z,1.1
2022-11-19T16:52:50.057Z,1.1
2022-11-19T16:54:50.665Z,1.1
2022-11-19T16:56:50.575Z,1.1
2022-11-19T16:58:50.929Z,1.1
2022-11-19T17:00:50.491Z,1.1
2022-11-19T17:02:50.902Z,1.1
2022-11-19T17:04:50.693Z,1.1
2022-11-19T17:06:50.323Z,1.1
2022-11-19T17:08:50.756Z,1.1
2022-11-19T17:10:50.205Z,1.1
2022-11-19T17:12:50.639Z,1.2
2022-11-19T17:14:50.254Z,1.2
2022-11-19T17:16:50.047Z,1.3
2022-11-19T17:18:50.432Z,1.3
2022-11-19T17:20:49.976Z,1.3
2022-11-19T17:22:50.261Z,1.3
2022-11-19T17:24:50.738Z,1.3
2022-11-19T17:26:50.421Z,1.3
2022-11-19T17:28:50.759Z,1.3
2022-11-19T17:30:50.322Z,1.3
2022-11-19T17:32:50.743Z,1.3
2022-11-19T17:34:50.622Z,1.3
2022-11-19T17:36:50.341Z,1.2
2022-11-19T17:38:50.643Z,1.2
2022-11-19T17:40:50.122Z,1.2
2022-11-19T17:42:50.470Z,1.2
2022-11-19T17:44:50.790Z,1.2
2022-11-19T17:46:50.565Z,1.2
2022-11-19T17:48:49.912Z,1.2
2022-11-19T17:50:50.377Z,1.2
2022-11-19T17:52:50.812Z,1.2
2022-11-19T17:54:50.161Z,1.3
2022-11-19T17:56:50.923Z,1.3
2022-11-19T17:58:50.303Z,1.3
2022-11-19T18:00:50.596Z,1.3
2022-11-19T18:02:50.152Z,1.4
2022-11-19T18:04:50.125Z,1.4
2022-11-19T18:06:50.843Z,1.5
2022-11-19T18:08:50.200Z,1.5
2022-11-19T18:10:50.547Z,1.5
2022-11-19T18:12:50.148Z,1.5
2022-11-19T18:14:50.540Z,1.5
2022-11-19T18:16:50.179Z,1.5
2022-11-19T18:18:50.654Z,1.5
2022-11-19T18:20:49.993Z,1.4
2022-11-19T18:22:50.524Z,1.5
2022-11-19T18:24:50.841Z,1.5
2022-11-19T18:26:50.496Z,1.5
2022-11-19T18:28:50.105Z,1.5
2022-11-19T18:30:50.409Z,1.6
2022-11-19T18:32:50.889Z,1.6
2022-11-19T18:34:50.743Z,1.6
2022-11-19T18:36:50.439Z,1.6
2022-11-19T18:40:50.425Z,1.6
2022-11-19T18:42:50.861Z,1.5
2022-11-19T18:44:50.212Z,1.5
2022-11-19T18:46:50.739Z,1.6
2022-11-19T18:48:50.276Z,1.6
2022-11-19T18:50:50.667Z,1.6
2022-11-19T18:52:50.229Z,1.5
2022-11-19T18:54:50.625Z,1.5
2022-11-19T18:56:50.437Z,1.5
2022-11-19T18:58:50.035Z,1.5
2022-11-19T19:00:50.340Z,1.5
2022-11-19T19:02:50.881Z,1.4
2022-11-19T19:04:51.638Z,1.4
2022-11-19T19:06:50.375Z,1.4
2022-11-19T19:08:50.833Z,1.4
2022-11-19T19:10:50.091Z,1.4
2022-11-19T19:12:50.572Z,1.4
2022-11-19T19:14:49.987Z,1.4
2022-11-19T19:16:50.613Z,1.4
2022-11-19T19:18:50.179Z,1.4
2022-11-19T19:20:50.539Z,1.4
2022-11-19T19:22:50.801Z,1.3
2022-11-19T19:24:58.771Z,1.3
2022-11-19T19:26:50.577Z,1.3
2022-11-19T19:28:50.912Z,1.3
2022-11-19T19:30:50.513Z,1.3
2022-11-19T19:32:50.835Z,1.3
2022-11-19T19:34:50.701Z,1.3
2022-11-19T19:36:54.104Z,1.3
2022-11-19T19:38:50.455Z,1.2
2022-11-19T19:40:50.192Z,1.2
2022-11-19T19:42:50.856Z,1.2
2022-11-19T19:44:50.373Z,1.2
2022-11-19T19:46:50.384Z,1.2
2022-11-19T19:48:50.786Z,1.1
2022-11-19T19:50:50.391Z,1.1
2022-11-19T19:52:50.734Z,1.1
2022-11-19T19:54:50.379Z,1.2
2022-11-19T19:56:50.198Z,1.1
2022-11-19T19:58:50.428Z,1.1
2022-11-19T20:00:49.971Z,1.1
2022-11-19T20:02:50.402Z,1.1
2022-11-19T20:04:50.457Z,1.2
2022-11-19T20:06:50.292Z,1.1
2022-11-19T20:08:50.681Z,1.1
2022-11-19T20:10:50.308Z,1.1
2022-11-19T20:12:50.643Z,1.1
2022-11-19T20:14:50.296Z,1.0
2022-11-19T20:16:50.010Z,1.0
2022-11-19T20:18:50.435Z,1.1
2022-11-19T20:20:50.057Z,1.1
2022-11-19T20:22:50.472Z,1.1
2022-11-19T20:24:50.002Z,1.1
2022-11-19T20:26:50.723Z,1.1
2022-11-19T20:28:50.058Z,1.1
2022-11-19T20:30:50.719Z,1.1
2022-11-19T20:32:50.283Z,1.1
2022-11-19T20:34:50.281Z,1.1
2022-11-19T20:36:49.998Z,1.1
2022-11-19T20:38:50.665Z,1.1
2022-11-19T20:40:50.347Z,1.1
2022-11-19T20:42:50.700Z,1.1
2022-11-19T20:44:50.187Z,1.0
2022-11-19T20:46:49.955Z,1.0
2022-11-19T20:48:50.359Z,1.0
2022-11-19T20:50:50.042Z,1.0
2022-11-19T20:52:50.378Z,1.0
2022-11-19T20:54:50.764Z,1.0
2022-11-19T20:56:50.537Z,1.0
2022-11-19T20:58:50.093Z,1.0
2022-11-19T21:00:50.762Z,1.0
2022-11-19T21:02:50.161Z,1.0
2022-11-19T21:04:50.068Z,1.0
2022-11-19T21:06:50.959Z,1.1
2022-11-19T21:08:50.673Z,1.1
2022-11-19T21:10:50.000Z,1.1
2022-11-19T21:12:50.437Z,1.1
2022-11-19T21:14:50.788Z,1.1
2022-11-19T21:16:50.427Z,1.1
2022-11-19T21:18:50.105Z,1.1
2022-11-19T21:20:50.585Z,1.1
2022-11-19T21:22:50.003Z,1.1
2022-11-19T21:24:50.497Z,1.1
2022-11-19T21:26:50.544Z,1.1
2022-11-19T21:28:50.644Z,1.1
2022-11-19T21:30:50.263Z,1.1
2022-11-19T21:32:50.644Z,1.1
2022-11-19T21:34:50.702Z,1.1
2022-11-19T21:36:50.322Z,1.1
2022-11-19T21:38:50.906Z,1.1
2022-11-19T21:40:50.542Z,1.1
2022-11-19T21:42:50.679Z,1.1
2022-11-19T21:44:50.556Z,1.1
2022-11-19T21:46:50.287Z,1.1
2022-11-19T21:48:50.088Z,1.1
2022-11-19T21:50:50.044Z,1.1
2022-11-19T21:52:50.083Z,1.1
2022-11-19T21:54:50.042Z,1.1
2022-11-19T21:56:50.812Z,1.1
2022-11-19T21:58:50.200Z,1.1
2022-11-19T22:00:50.916Z,1.1
2022-11-19T22:02:50.354Z,1.0
2022-11-19T22:04:50.136Z,1.0
2022-11-19T22:06:50.895Z,1.0
2022-11-19T22:08:50.350Z,1.0
2022-11-19T22:10:50.850Z,0.9
2022-11-19T22:12:50.310Z,0.9
2022-11-19T22:14:50.878Z,0.9
2022-11-19T22:16:50.715Z,0.9
2022-11-19T22:18:50.347Z,0.9
2022-11-19T22:20:50.721Z,0.9
2022-11-19T22:22:50.077Z,0.9
2022-11-19T22:24:50.581Z,0.9
2022-11-19T22:26:50.137Z,1.0
2022-11-19T22:28:50.600Z,1.0
2022-11-19T22:30:50.052Z,1.0
2022-11-19T22:32:50.381Z,1.0
2022-11-19T22:34:50.223Z,1.0
2022-11-19T22:36:50.897Z,1.1
2022-11-19T22:38:50.528Z,1.1
2022-11-19T22:40:49.923Z,1.1
2022-11-19T22:42:50.486Z,1.1
2022-11-19T22:44:50.912Z,1.1
2022-11-19T22:46:50.618Z,1.1
2022-11-19T22:48:50.114Z,1.1
2022-11-19T22:50:50.553Z,1.1
2022-11-19T22:52:49.955Z,1.1
2022-11-19T22:54:50.414Z,1.1
2022-11-19T22:56:50.137Z,1.2
2022-11-19T22:58:50.659Z,1.2
2022-11-19T23:00:50.335Z,1.2
2022-11-19T23:02:50.795Z,1.2
2022-11-19T23:04:50.577Z,1.2
2022-11-19T23:06:50.354Z,1.2
2022-11-19T23:08:50.855Z,1.2
2022-11-19T23:10:50.211Z,1.2
2022-11-19T23:12:50.876Z,1.2
2022-11-19T23:14:50.146Z,1.2
2022-11-19T23:16:49.991Z,1.2
2022-11-19T23:18:50.388Z,1.2
2022-11-19T23:20:50.758Z,1.2
2022-11-19T23:22:50.271Z,1.2
2022-11-19T23:24:50.621Z,1.2
2022-11-19T23:26:50.444Z,1.2
2022-11-19T23:28:50.764Z,1.2
2022-11-19T23:30:50.098Z,1.2
2022-11-19T23:32:50.574Z,1.3
2022-11-19T23:34:50.476Z,1.3
2022-11-19T23:36:50.211Z,1.3
2022-11-19T23:38:50.558Z,1.3
2022-11-19T23:40:50.148Z,1.3
2022-11-19T23:42:52.627Z,1.3
2022-11-19T23:44:50.048Z,1.3
2022-11-19T23:46:50.900Z,1.3
2022-11-19T23:48:50.192Z,1.2
2022-11-19T23:50:50.794Z,1.2
2022-11-19T23:52:50.381Z,1.2
2022-11-19T23:54:49.996Z,1.2
2022-11-19T23:56:50.848Z,1.2
2022-11-19T23:58:50.289Z,1.3
